Time,TemperatureF,DewpointF,PressureIn,WindDirection,WindDirectionDegrees,WindSpeedMPH,WindSpeedGustMPH,Humidity,HourlyPrecipIn,Conditions,Clouds,dailyrainin,SolarRadiationWatts/m^2,SoftwareType,DateUTC
2013-06-16 00:07:00,80.9,77.0,30.05,ENE,64,4.0,8.0,88,0.00,,,0.00,0,weatherlink.com 1.10,2013-06-16 04:07:00,
2013-06-16 00:22:00,80.7,77.0,30.04,SE,132,7.0,11.0,88,0.00,,,0.00,0,weatherlink.com 1.10,2013-06-16 04:22:00,
2013-06-16 00:37:00,80.6,77.0,30.04,East,95,8.0,10.0,88,0.00,,,0.00,0,weatherlink.com 1.10,2013-06-16 04:37:00,
2013-06-16 00:52:00,80.6,77.0,30.03,ENE,67,7.0,13.0,87,0.00,,,0.00,0,weatherlink.com 1.10,2013-06-16 04:52:00,
2013-06-16 01:07:00,80.6,77.0,30.03,ENE,75,4.0,11.0,87,0.00,,,0.00,0,weatherlink.com 1.10,2013-06-16 05:07:00,
2013-06-16 01:22:00,80.5,76.0,30.02,ENE,72,4.0,9.0,87,0.00,,,0.00,0,weatherlink.com 1.10,2013-06-16 05:22:00,
2013-06-16 01:37:00,80.4,76.0,30.02,East,84,2.0,7.0,87,0.00,,,0.00,0,weatherlink.com 1.10,2013-06-16 05:37:00,
2013-06-16 01:52:00,80.3,77.0,30.01,East,88,6.0,9.0,88,0.00,,,0.00,0,weatherlink.com 1.10,2013-06-16 05:52:00,
2013-06-16 02:07:00,80.2,76.0,30.01,ENE,69,2.0,8.0,88,0.00,,,0.00,0,weatherlink.com 1.10,2013-06-16 06:07:00,
2013-06-16 02:22:00,80.1,76.0,30.01,ENE,67,5.0,12.0,88,0.00,,,0.00,0,weatherlink.com 1.10,2013-06-16 06:22:00,
2013-06-16 02:37:00,80.1,76.0,30.00,East,91,11.0,11.0,88,0.00,,,0.00,0,weatherlink.com 1.10,2013-06-16 06:37:00,
2013-06-16 02:52:00,80.1,76.0,30.00,East,96,7.0,13.0,88,0.00,,,0.00,0,weatherlink.com 1.10,2013-06-16 06:52:00,
2013-06-16 03:07:00,80.0,76.0,29.99,East,99,5.0,10.0,88,0.00,,,0.00,0,weatherlink.com 1.10,2013-06-16 07:07:00,
2013-06-16 03:22:00,79.9,76.0,29.99,East,95,10.0,13.0,88,0.00,,,0.00,0,weatherlink.com 1.10,2013-06-16 07:22:00,
2013-06-16 03:37:00,79.7,76.0,29.99,ESE,112,2.0,8.0,88,0.00,,,0.00,0,weatherlink.com 1.10,2013-06-16 07:37:00,
2013-06-16 03:52:00,79.5,76.0,29.99,SE,131,4.0,8.0,88,0.00,,,0.00,0,weatherlink.com 1.10,2013-06-16 07:52:00,
2013-06-16 04:07:00,79.3,76.0,29.99,East,90,5.0,11.0,88,0.00,,,0.00,0,weatherlink.com 1.10,2013-06-16 08:07:00,
2013-06-16 04:22:00,79.1,75.0,29.99,SE,127,5.0,11.0,88,0.00,,,0.00,0,weatherlink.com 1.10,2013-06-16 08:22:00,
2013-06-16 04:37:00,79.0,75.0,29.99,SE,126,3.0,9.0,88,0.00,,,0.00,0,weatherlink.com 1.10,2013-06-16 08:37:00,
2013-06-16 04:52:00,78.9,75.0,29.99,ESE,105,5.0,10.0,88,0.00,,,0.00,0,weatherlink.com 1.10,2013-06-16 08:52:00,
2013-06-16 05:07:00,78.9,75.0,29.99,East,79,5.0,8.0,88,0.00,,,0.00,0,weatherlink.com 1.10,2013-06-16 09:07:00,
2013-06-16 05:22:00,78.9,76.0,30.00,SE,134,4.0,10.0,89,0.00,,,0.00,0,weatherlink.com 1.10,2013-06-16 09:22:00,
2013-06-16 05:37:00,78.8,75.0,30.00,ESE,123,4.0,8.0,89,0.00,,,0.00,0,weatherlink.com 1.10,2013-06-16 09:37:00,
2013-06-16 05:52:00,78.6,75.0,30.00,ENE,77,3.0,7.0,89,0.00,,,0.00,5,weatherlink.com 1.10,2013-06-16 09:52:00,
2013-06-16 06:07:00,78.6,75.0,30.01,East,85,6.0,9.0,89,0.00,,,0.00,14,weatherlink.com 1.10,2013-06-16 10:07:00,
2013-06-16 06:22:00,78.6,76.0,30.01,ENE,72,5.0,9.0,90,0.00,,,0.00,33,weatherlink.com 1.10,2013-06-16 10:22:00,
2013-06-16 06:37:00,78.8,75.0,30.01,East,98,3.0,8.0,89,0.00,,,0.00,53,weatherlink.com 1.10,2013-06-16 10:37:00,
2013-06-16 06:52:00,79.1,76.0,30.02,ENE,65,5.0,10.0,89,0.00,,,0.00,84,weatherlink.com 1.10,2013-06-16 10:52:00,
2013-06-16 07:08:00,79.6,76.0,30.02,East,83,3.0,8.0,89,0.00,,,0.00,137,weatherlink.com 1.10,2013-06-16 11:08:00,
2013-06-16 07:23:00,80.3,77.0,30.03,ENE,70,3.0,8.0,88,0.00,,,0.00,193,weatherlink.com 1.10,2013-06-16 11:23:00,
2013-06-16 07:38:00,81.2,77.0,30.03,NE,51,0.0,9.0,87,0.00,,,0.00,258,weatherlink.com 1.10,2013-06-16 11:38:00,
2013-06-16 07:54:00,82.3,78.0,30.04,ENE,59,3.0,10.0,86,0.00,,,0.00,315,weatherlink.com 1.10,2013-06-16 11:54:00,
2013-06-16 08:08:00,82.8,78.0,30.04,NE,52,4.0,13.0,84,0.00,,,0.00,367,weatherlink.com 1.10,2013-06-16 12:08:00,
2013-06-16 08:23:00,83.4,77.0,30.04,NE,53,4.0,14.0,82,0.00,,,0.00,427,weatherlink.com 1.10,2013-06-16 12:23:00,
2013-06-16 08:38:00,84.1,78.0,30.04,East,97,8.0,13.0,81,0.00,,,0.00,462,weatherlink.com 1.10,2013-06-16 12:38:00,
2013-06-16 08:53:00,84.3,78.0,30.04,East,84,8.0,14.0,80,0.00,,,0.00,519,weatherlink.com 1.10,2013-06-16 12:53:00,
2013-06-16 09:08:00,84.7,78.0,30.04,ENE,61,7.0,15.0,79,0.00,,,0.00,573,weatherlink.com 1.10,2013-06-16 13:08:00,
2013-06-16 09:23:00,85.0,78.0,30.04,East,85,11.0,18.0,79,0.00,,,0.00,608,weatherlink.com 1.10,2013-06-16 13:23:00,
2013-06-16 09:38:00,85.2,78.0,30.04,ENE,68,10.0,17.0,78,0.00,,,0.00,628,weatherlink.com 1.10,2013-06-16 13:38:00,
2013-06-16 09:53:00,85.6,78.0,30.04,East,85,8.0,17.0,78,0.00,,,0.00,666,weatherlink.com 1.10,2013-06-16 13:53:00,
2013-06-16 10:08:00,85.4,77.0,30.05,ENE,58,12.0,17.0,77,0.00,,,0.00,613,weatherlink.com 1.10,2013-06-16 14:08:00,
2013-06-16 10:23:00,85.2,77.0,30.05,ENE,66,5.0,17.0,77,0.00,,,0.00,668,weatherlink.com 1.10,2013-06-16 14:23:00,
2013-06-16 10:38:00,85.7,78.0,30.04,NE,45,5.0,15.0,78,0.00,,,0.00,707,weatherlink.com 1.10,2013-06-16 14:38:00,
2013-06-16 10:53:00,85.9,78.0,30.04,ENE,77,4.0,17.0,77,0.00,,,0.00,816,weatherlink.com 1.10,2013-06-16 14:53:00,
2013-06-16 11:09:00,86.2,78.0,30.04,East,98,10.0,15.0,77,0.00,,,0.00,802,weatherlink.com 1.10,2013-06-16 15:09:00,
2013-06-16 11:24:00,86.3,78.0,30.04,ENE,67,14.0,18.0,76,0.00,,,0.00,856,weatherlink.com 1.10,2013-06-16 15:24:00,
2013-06-16 11:39:00,86.6,78.0,30.03,ENE,65,16.0,17.0,75,0.00,,,0.00,853,weatherlink.com 1.10,2013-06-16 15:39:00,
2013-06-16 11:54:00,86.4,78.0,30.03,ENE,62,14.0,17.0,76,0.00,,,0.00,860,weatherlink.com 1.10,2013-06-16 15:54:00,
2013-06-16 12:09:00,86.5,78.0,30.02,ENE,71,8.0,18.0,76,0.00,,,0.00,877,weatherlink.com 1.10,2013-06-16 16:09:00,
2013-06-16 12:24:00,86.7,78.0,30.01,NE,47,9.0,19.0,75,0.00,,,0.00,863,weatherlink.com 1.10,2013-06-16 16:24:00,
2013-06-16 12:39:00,87.2,78.0,30.01,ENE,59,8.0,16.0,75,0.00,,,0.00,872,weatherlink.com 1.10,2013-06-16 16:39:00,
2013-06-16 12:54:00,87.2,78.0,30.01,ENE,65,9.0,21.0,74,0.00,,,0.00,856,weatherlink.com 1.10,2013-06-16 16:54:00,
2013-06-16 13:09:00,87.4,78.0,30.01,East,80,8.0,19.0,73,0.00,,,0.00,851,weatherlink.com 1.10,2013-06-16 17:09:00,
2013-06-16 13:24:00,87.2,78.0,30.01,ENE,67,8.0,16.0,75,0.00,,,0.00,851,weatherlink.com 1.10,2013-06-16 17:24:00,
2013-06-16 13:39:00,86.9,78.0,30.00,East,87,10.0,16.0,74,0.00,,,0.00,821,weatherlink.com 1.10,2013-06-16 17:39:00,
2013-06-16 13:54:00,86.9,78.0,29.99,ENE,66,9.0,20.0,75,0.00,,,0.00,805,weatherlink.com 1.10,2013-06-16 17:54:00,
2013-06-16 14:09:00,86.6,78.0,29.99,East,80,15.0,18.0,75,0.00,,,0.00,705,weatherlink.com 1.10,2013-06-16 18:09:00,
2013-06-16 14:24:00,86.2,78.0,29.98,NE,36,5.0,18.0,76,0.00,,,0.00,719,weatherlink.com 1.10,2013-06-16 18:24:00,
2013-06-16 14:39:00,86.6,78.0,29.98,NE,49,3.0,17.0,75,0.00,,,0.00,691,weatherlink.com 1.10,2013-06-16 18:39:00,
2013-06-16 14:54:00,87.0,78.0,29.98,East,87,7.0,17.0,74,0.00,,,0.00,666,weatherlink.com 1.10,2013-06-16 18:54:00,
2013-06-16 15:09:00,86.1,78.0,29.98,ENE,65,16.0,22.0,76,0.00,,,0.00,628,weatherlink.com 1.10,2013-06-16 19:09:00,
2013-06-16 15:24:00,85.8,77.0,29.97,ENE,69,8.0,21.0,76,0.00,,,0.00,573,weatherlink.com 1.10,2013-06-16 19:24:00,
2013-06-16 15:39:00,86.2,78.0,29.98,East,88,6.0,18.0,77,0.00,,,0.00,520,weatherlink.com 1.10,2013-06-16 19:39:00,
2013-06-16 15:54:00,85.8,78.0,29.97,ESE,102,3.0,15.0,78,0.00,,,0.00,446,weatherlink.com 1.10,2013-06-16 19:54:00,
2013-06-16 16:09:00,85.6,78.0,29.97,NE,53,9.0,16.0,78,0.00,,,0.00,392,weatherlink.com 1.10,2013-06-16 20:09:00,
2013-06-16 16:24:00,84.9,78.0,29.97,ENE,69,9.0,19.0,79,0.00,,,0.00,364,weatherlink.com 1.10,2013-06-16 20:24:00,
2013-06-16 16:39:00,84.3,78.0,29.98,ENE,65,13.0,18.0,80,0.00,,,0.00,316,weatherlink.com 1.10,2013-06-16 20:39:00,
2013-06-16 16:54:00,84.0,78.0,29.97,ENE,64,12.0,18.0,81,0.00,,,0.00,204,weatherlink.com 1.10,2013-06-16 20:54:00,
2013-06-16 17:09:00,83.6,77.0,29.98,NE,45,12.0,17.0,81,0.00,,,0.00,199,weatherlink.com 1.10,2013-06-16 21:09:00,
2013-06-16 17:24:00,83.4,77.0,29.99,ENE,72,10.0,15.0,82,0.00,,,0.00,172,weatherlink.com 1.10,2013-06-16 21:24:00,
2013-06-16 17:39:00,83.1,77.0,29.99,NE,50,6.0,18.0,82,0.00,,,0.00,130,weatherlink.com 1.10,2013-06-16 21:39:00,
2013-06-16 17:54:00,82.7,77.0,29.99,ENE,64,15.0,16.0,82,0.00,,,0.00,93,weatherlink.com 1.10,2013-06-16 21:54:00,
2013-06-16 18:09:00,82.5,77.0,29.99,East,80,7.0,15.0,83,0.00,,,0.00,63,weatherlink.com 1.10,2013-06-16 22:09:00,
2013-06-16 18:24:00,82.3,77.0,30.00,ESE,106,13.0,16.0,83,0.00,,,0.00,39,weatherlink.com 1.10,2013-06-16 22:24:00,
2013-06-16 18:39:00,82.1,77.0,30.00,ENE,74,13.0,15.0,84,0.00,,,0.00,19,weatherlink.com 1.10,2013-06-16 22:39:00,
2013-06-16 18:54:00,81.8,77.0,30.00,ENE,66,12.0,24.0,85,0.00,,,0.00,5,weatherlink.com 1.10,2013-06-16 22:54:00,
2013-06-16 19:10:00,81.6,77.0,30.00,ENE,63,8.0,18.0,86,0.00,,,0.00,0,weatherlink.com 1.10,2013-06-16 23:10:00,
2013-06-16 19:25:00,81.6,77.0,30.00,East,98,10.0,14.0,86,0.00,,,0.00,0,weatherlink.com 1.10,2013-06-16 23:25:00,
2013-06-16 19:40:00,81.4,77.0,30.00,ESE,103,4.0,19.0,86,0.00,,,0.00,0,weatherlink.com 1.10,2013-06-16 23:40:00,
2013-06-16 19:55:00,81.4,77.0,30.01,ENE,63,2.0,14.0,87,0.00,,,0.00,0,weatherlink.com 1.10,2013-06-16 23:55:00,
2013-06-16 20:10:00,81.4,77.0,30.02,NE,51,8.0,13.0,87,0.00,,,0.00,0,weatherlink.com 1.10,2013-06-17 00:10:00,
2013-06-16 20:25:00,81.4,77.0,30.02,East,85,9.0,17.0,87,0.00,,,0.00,0,weatherlink.com 1.10,2013-06-17 00:25:00,
2013-06-16 20:40:00,81.4,77.0,30.03,East,91,3.0,11.0,87,0.00,,,0.00,0,weatherlink.com 1.10,2013-06-17 00:40:00,
2013-06-16 20:55:00,81.4,77.0,30.03,NE,53,7.0,12.0,87,0.00,,,0.00,0,weatherlink.com 1.10,2013-06-17 00:55:00,
2013-06-16 21:10:00,81.3,77.0,30.03,NE,55,2.0,10.0,86,0.00,,,0.00,0,weatherlink.com 1.10,2013-06-17 01:10:00,
2013-06-16 21:25:00,81.3,77.0,30.03,East,82,6.0,15.0,86,0.00,,,0.00,0,weatherlink.com 1.10,2013-06-17 01:25:00,
2013-06-16 21:40:00,81.3,77.0,30.04,East,98,6.0,11.0,86,0.00,,,0.00,0,weatherlink.com 1.10,2013-06-17 01:40:00,
2013-06-16 21:55:00,81.2,77.0,30.04,East,86,5.0,13.0,86,0.00,,,0.00,0,weatherlink.com 1.10,2013-06-17 01:55:00,
2013-06-16 22:10:00,81.2,77.0,30.04,East,90,3.0,14.0,86,0.00,,,0.00,0,weatherlink.com 1.10,2013-06-17 02:10:00,
2013-06-16 22:25:00,81.2,76.0,30.05,ENE,75,4.0,12.0,85,0.00,,,0.00,0,weatherlink.com 1.10,2013-06-17 02:25:00,
2013-06-16 22:40:00,81.3,77.0,30.05,ENE,65,11.0,15.0,85,0.00,,,0.00,0,weatherlink.com 1.10,2013-06-17 02:40:00,
2013-06-16 22:55:00,81.2,76.0,30.05,East,93,9.0,14.0,85,0.00,,,0.00,0,weatherlink.com 1.10,2013-06-17 02:55:00,
2013-06-16 23:10:00,81.2,76.0,30.05,East,100,7.0,12.0,85,0.00,,,0.00,0,weatherlink.com 1.10,2013-06-17 03:10:00,
2013-06-16 23:25:00,81.2,77.0,30.04,East,86,7.0,11.0,86,0.00,,,0.00,0,weatherlink.com 1.10,2013-06-17 03:25:00,
2013-06-16 23:40:00,80.9,76.0,30.04,ESE,119,5.0,12.0,86,0.00,,,0.00,0,weatherlink.com 1.10,2013-06-17 03:40:00,
2013-06-16 23:55:00,80.8,76.0,30.03,ESE,108,5.0,14.0,85,0.00,,,0.00,0,weatherlink.com 1.10,2013-06-17 03:55:00,